SondeTracker

Meteorological Radiosondes Database

Operations

Sounding was ended - last measurement: 2022-12-07 02:00:57z

MAP
About Radiosonde

Number: U1060169

Launch Site: Castor Bay (IE)

Type: RS41

AUX: NO

Frequency: 403.90 MHz

Max Speed: 133 km/h at 30617 m

Average Speed: 52.00 km/h

Max Altitude: 30659 m

Average Ascent Speed: 4.41 m/s

Average Descent Speed: 8.68 m/s

Status: LOST

Status Changes
Launch Site Type AUX Frequency Status Finder Landing Point Description Changes made by
MHz LOST 0, 0 AUTO STATUS: Probably lost in the water [BOT]AUTO-STATUS - 2022-12-07 03:10:17z
APRS Statistics

Received Frames: 407

First Frame [UTC]: 2022-12-06 23:50:29z

Last Frame [UTC]: 2022-12-07 02:00:57z

Receivers: G3HRZ, G4VFL-14, GB3EI-15, GURGE2-15

Flight Time: 02:10:28 h

Distance From First Measurement: 99.72 km

Nearest City: Balbriggan (IE) [31.00 km]

Nearest Hunter: EI6IL [55.27 km]

Ground Altitude: -123 m

Distance from QTH: 0.00 km

APRS Data
Receiver Number Date/Time [UTC] φ λ Course [°] Speed [km/h] Altitude [m] Description
G4VFL-14U10601692022-12-07 02:00:5753.4778-5.76743177576869Clb=-4.1m/s t=-34.5C h=70.5% 403.90MHz Type=RS41-SG Details on http://radiosondy.info
G4VFL-14U10601692022-12-07 01:53:4853.5294-5.76583188658676Clb=-4.5m/s t=-49.3C h=65.8% 403.90MHz Type=RS41-SG batt=2.5V Details on http://radiosondy.info
G4VFL-14U10601692022-12-07 01:53:3353.5318-5.76525190618744Clb=-4.5m/s t=-49.9C h=65.6% 403.90MHz Type=RS41-SG Details on http://radiosondy.info
G4VFL-14U10601692022-12-07 01:53:1653.5343-5.76459191568822Clb=-4.5m/s t=-50.3C h=63.2% 403.90MHz Type=RS41-SG Details on http://radiosondy.info
G4VFL-14U10601692022-12-07 01:52:0353.5439-5.76171189549153Clb=-4.6m/s t=-52.5C h=60.1% 403.90MHz Type=RS41-SG batt=2.4V Details on http://radiosondy.info
G4VFL-14U10601692022-12-07 01:51:4753.5459-5.76123186529225Clb=-4.4m/s t=-53.0C h=52.0% 403.90MHz Type=RS41-SG Details on http://radiosondy.info
G4VFL-14U10601692022-12-07 01:51:3153.548-5.76084186529298Clb=-4.5m/s t=-53.4C h=42.8% 403.90MHz Type=RS41-SG Details on http://radiosondy.info
G4VFL-14U10601692022-12-07 01:51:1553.5501-5.76037188509370Clb=-4.3m/s t=-53.5C h=30.6% 403.90MHz Type=RS41-SG TxOff=7h54m batt=2.5V Details on http://radiosondy.info
G4VFL-14U10601692022-12-07 01:51:0053.552-5.76001186489438Clb=-4.4m/s t=-53.6C h=22.9% 403.90MHz Type=RS41-SG Details on http://radiosondy.info
G4VFL-14U10601692022-12-07 01:50:4553.5538-5.75956193509505Clb=-4.4m/s t=-53.7C h=18.8% 403.90MHz Type=RS41-SG Details on http://radiosondy.info
G4VFL-14U10601692022-12-07 01:50:3053.5556-5.75875199509573Clb=-4.5m/s t=-53.9C h=18.8% 403.90MHz Type=RS41-SG batt=2.4V Details on http://radiosondy.info
G4VFL-14U10601692022-12-07 01:48:3053.5691-5.749072064310121Clb=-4.6m/s t=-55.7C h=23.9% 403.90MHz Type=RS41-SG Details on http://radiosondy.info
G4VFL-14U10601692022-12-07 01:48:1053.5711-5.747642035410219Clb=-4.7m/s t=-56.3C h=23.5% 403.90MHz Type=RS41-SG Details on http://radiosondy.info
G4VFL-14U10601692022-12-07 01:47:5253.5732-5.746072075610307Clb=-4.7m/s t=-56.5C h=21.0% 403.90MHz Type=RS41-SG batt=2.5V Details on http://radiosondy.info
G4VFL-14U10601692022-12-07 01:47:2453.5766-5.742542185210440Clb=-4.8m/s t=-56.5C h=18.4% 403.90MHz Type=RS41-SG Details on http://radiosondy.info
G4VFL-14U10601692022-12-07 01:45:5853.5858-5.733582064310871Clb=-5.0m/s t=-57.6C h=19.9% 403.90MHz Type=RS41-SG TxOff=7h59m Details on http://radiosondy.info
G4VFL-14U10601692022-12-07 01:45:4253.5873-5.732472073710955Clb=-5.8m/s t=-57.8C h=19.7% 403.90MHz Type=RS41-SG batt=2.4V Details on http://radiosondy.info
G4VFL-14U10601692022-12-07 01:45:2753.5886-5.731642003311035Clb=-5.4m/s t=-58.0C h=20.0% 403.90MHz Type=RS41-SG Details on http://radiosondy.info
G4VFL-14U10601692022-12-07 01:45:1153.5899-5.73111903311122Clb=-5.1m/s t=-58.0C h=19.2% 403.90MHz Type=RS41-SG Details on http://radiosondy.info
G4VFL-14U10601692022-12-07 01:44:4953.5917-5.730951723711240Clb=-5.0m/s t=-58.9C h=18.8% 403.90MHz Type=RS41-SG batt=2.5V Details on http://radiosondy.info
G4VFL-14U10601692022-12-07 01:44:3253.5932-5.731751584411331Clb=-5.4m/s t=-59.4C h=18.3% 403.90MHz Type=RS41-SG Details on http://radiosondy.info
G4VFL-14U10601692022-12-07 01:43:0753.6039-5.73711776111804Clb=-5.1m/s t=-61.4C h=13.7% 403.90MHz Type=RS41-SG Details on http://radiosondy.info
G4VFL-14U10601692022-12-07 01:42:5153.6063-5.73721795011893Clb=-5.6m/s t=-61.2C h=12.0% 403.90MHz Type=RS41-SG batt=2.5V Details on http://radiosondy.info
G4VFL-14U10601692022-12-07 01:42:3653.6082-5.737111894611975Clb=-5.5m/s t=-60.6C h=10.5% 403.90MHz Type=RS41-SG Details on http://radiosondy.info
G4VFL-14U10601692022-12-07 01:42:2153.6099-5.73671904112061Clb=-5.4m/s t=-59.0C h=8.8% 403.90MHz Type=RS41-SG Details on http://radiosondy.info
G4VFL-14U10601692022-12-07 01:42:0653.6114-5.736181933512145Clb=-5.7m/s t=-58.5C h=8.3% 403.90MHz Type=RS41-SG TxOff=8h03m batt=2.4V Details on http://radiosondy.info
G4VFL-14U10601692022-12-07 01:41:4953.6128-5.735591962812241Clb=-5.6m/s t=-58.2C h=7.9% 403.90MHz Type=RS41-SG Details on http://radiosondy.info
G4VFL-14U10601692022-12-07 01:41:3453.6139-5.735291822412325Clb=-6.0m/s t=-58.5C h=7.5% 403.90MHz Type=RS41-SG Details on http://radiosondy.info
G4VFL-14U10601692022-12-07 01:41:1853.6148-5.735461612212416Clb=-6.4m/s t=-58.8C h=7.4% 403.90MHz Type=RS41-SG batt=2.4V Details on http://radiosondy.info
G4VFL-14U10601692022-12-07 01:40:0553.6188-5.741011543712870Clb=-6.3m/s t=-59.3C h=6.4% 403.90MHz Type=RS41-SG Details on http://radiosondy.info
G4VFL-14U10601692022-12-07 01:39:4853.6203-5.742191624312978Clb=-6.1m/s t=-58.8C h=6.0% 403.90MHz Type=RS41-SG Details on http://radiosondy.info
G4VFL-14U10601692022-12-07 01:39:3353.6218-5.743091623713074Clb=-6.2m/s t=-58.7C h=5.9% 403.90MHz Type=RS41-SG batt=2.5V Details on http://radiosondy.info
G4VFL-14U10601692022-12-07 01:39:1853.6231-5.743681723713170Clb=-6.2m/s t=-58.3C h=5.7% 403.90MHz Type=RS41-SG Details on http://radiosondy.info
G4VFL-14U10601692022-12-07 01:39:0353.6245-5.743961753013267Clb=-6.7m/s t=-57.8C h=5.5% 403.90MHz Type=RS41-SG Details on http://radiosondy.info
G4VFL-14U10601692022-12-07 01:38:4853.6255-5.744081762613367Clb=-6.7m/s t=-57.5C h=5.3% 403.90MHz Type=RS41-SG TxOff=8h06m batt=2.4V Details on http://radiosondy.info
G4VFL-14U10601692022-12-07 01:38:3353.6265-5.744141762813469Clb=-6.4m/s t=-57.4C h=5.2% 403.90MHz Type=RS41-SG Details on http://radiosondy.info
G4VFL-14U10601692022-12-07 01:38:1753.6276-5.744461663513576Clb=-6.8m/s t=-57.8C h=5.2% 403.90MHz Type=RS41-SG Details on http://radiosondy.info
G4VFL-14U10601692022-12-07 01:36:5453.6352-5.746991923014150Clb=-6.7m/s t=-56.6C h=4.9% 403.90MHz Type=RS41-SG batt=2.4V Details on http://radiosondy.info
G4VFL-14U10601692022-12-07 01:36:3853.6364-5.74681772614263Clb=-7.3m/s t=-55.8C h=4.5% 403.90MHz Type=RS41-SG Details on http://radiosondy.info
G4VFL-14U10601692022-12-07 01:36:2353.6373-5.747241583114368Clb=-6.8m/s t=-55.9C h=4.5% 403.90MHz Type=RS41-SG Details on http://radiosondy.info
G4VFL-14U10601692022-12-07 01:36:0553.6384-5.748551422814492Clb=-7.1m/s t=-56.5C h=4.6% 403.90MHz Type=RS41-SG batt=2.4V Details on http://radiosondy.info
G4VFL-14U10601692022-12-07 01:35:4853.6394-5.74961532814611Clb=-7.1m/s t=-56.8C h=4.6% 403.90MHz Type=RS41-SG Details on http://radiosondy.info
G4VFL-14U10601692022-12-07 01:35:3353.6402-5.750571423014717Clb=-7.1m/s t=-57.2C h=4.7% 403.90MHz Type=RS41-SG Details on http://radiosondy.info
G4VFL-14U10601692022-12-07 01:35:1753.6412-5.751751493714830Clb=-7.1m/s t=-58.0C h=5.0% 403.90MHz Type=RS41-SG TxOff=8h10m batt=2.4V Details on http://radiosondy.info
GB3EI-15U10601692022-12-07 01:34:1653.6465-5.759391524415370Clb=-8.1m/s t=-57.7C h=1.7% p=-1.0hPa 403.900 MHz Type=RS41-SG ser=U1060169 Radiosonde
G4VFL-14U10601692022-12-07 01:34:0453.6466-5.759471544315378Clb=-8.2m/s t=-57.6C h=4.8% 403.90MHz Type=RS41-SG Details on http://radiosondy.info
G4VFL-14U10601692022-12-07 01:33:4853.648-5.760781543015505Clb=-8.3m/s t=-57.3C h=4.7% 403.90MHz Type=RS41-SG Details on http://radiosondy.info
GB3EI-15U10601692022-12-07 01:33:4553.6487-5.761311582615586Clb=-7.7m/s t=-57.5C h=1.7% p=-1.0hPa 403.900 MHz Type=RS41-SG ser=U1060169 Radiosonde
G4VFL-14U10601692022-12-07 01:33:3353.649-5.761511632415626Clb=-7.9m/s t=-57.6C h=4.8% 403.90MHz Type=RS41-SG batt=2.4V Details on http://radiosondy.info
G4VFL-14U10601692022-12-07 01:33:1653.65-5.762131553015764Clb=-8.2m/s t=-57.6C h=4.6% 403.90MHz Type=RS41-SG Details on http://radiosondy.info
GB3EI-15U10601692022-12-07 01:33:1453.6502-5.762281532815788Clb=-8.1m/s t=-57.8C h=1.6% p=-1.0hPa 403.900 MHz Type=RS41-SG ser=U1060169 Radiosonde
G4VFL-14U10601692022-12-07 01:33:0153.6509-5.76311453015886Clb=-8.2m/s t=-58.1C h=4.8% 403.90MHz Type=RS41-SG Details on http://radiosondy.info
G4VFL-14U10601692022-12-07 01:32:4653.6517-5.764361383116008Clb=-8.3m/s t=-58.5C h=4.9% 403.90MHz Type=RS41-SG batt=2.4V Details on http://radiosondy.info
GB3EI-15U10601692022-12-07 01:32:4353.652-5.764711362816041Clb=-8.2m/s t=-58.6C h=1.7% p=-1.0hPa 403.900 MHz Type=RS41-SG ser=U1060169 Radiosonde
G4VFL-14U10601692022-12-07 01:32:3153.6526-5.76561462816130Clb=-8.1m/s t=-58.8C h=4.9% 403.90MHz Type=RS41-SG Details on http://radiosondy.info
G4VFL-14U10601692022-12-07 01:32:1653.6535-5.76661442816253Clb=-8.6m/s t=-59.0C h=5.1% 403.90MHz Type=RS41-SG Details on http://radiosondy.info
GB3EI-15U10601692022-12-07 01:32:1253.6539-5.767011463716294Clb=-8.4m/s t=-59.2C h=1.7% p=-1.0hPa 403.900 MHz Type=RS41-SG ser=U1060169 Radiosonde
GB3EI-15U10601692022-12-07 01:31:4153.6562-5.768081803116550Clb=-8.9m/s t=-57.1C h=1.4% p=-1.0hPa 403.900 MHz Type=RS41-SG ser=U1060169 Radiosonde
GB3EI-15U10601692022-12-07 01:31:1053.6578-5.768691441516822Clb=-9.1m/s t=-57.1C h=1.4% p=-1.0hPa 403.900 MHz Type=RS41-SG ser=U1060169 Radiosonde
G4VFL-14U10601692022-12-07 01:30:5253.6586-5.769521462216982Clb=-8.6m/s t=-58.0C h=4.7% 403.90MHz Type=RS41-SG TxOff=8h14m batt=2.5V Details on http://radiosondy.info
G3HRZU10601692022-12-07 01:30:4853.6589-5.769761542217026Clb=-8.9m/s t=-58.2C h=1.5% p=-1.0hPa 403.901 MHz Type=RS41-SG ser=U1060169 Radiosonde
GB3EI-15U10601692022-12-07 01:30:3953.6592-5.770161492217098Clb=-9.1m/s t=-58.6C h=1.5% p=-1.0hPa 403.900 MHz Type=RS41-SG ser=U1060169 Radiosonde
G4VFL-14U10601692022-12-07 01:30:3753.6593-5.770251503017116Clb=-8.9m/s t=-58.6C h=4.8% 403.90MHz Type=RS41-SG Details on http://radiosondy.info
G4VFL-14U10601692022-12-07 01:30:2153.6603-5.771351412817261Clb=-9.3m/s t=-58.4C h=4.9% 403.90MHz Type=RS41-SG Details on http://radiosondy.info
G3HRZU10601692022-12-07 01:30:1753.6605-5.771651423017297Clb=-9.2m/s t=-58.3C h=1.5% p=-1.0hPa 403.901 MHz Type=RS41-SG ser=U1060169 Radiosonde
G4VFL-14U10601692022-12-07 01:30:0553.6612-5.772491422617407Clb=-8.9m/s t=-58.1C h=4.7% 403.90MHz Type=RS41-SG batt=2.4V Details on http://radiosondy.info
G4VFL-14U10601692022-12-07 01:29:5053.6621-5.773271492417540Clb=-9.2m/s t=-57.9C h=4.7% 403.90MHz Type=RS41-SG Details on http://radiosondy.info
G3HRZU10601692022-12-07 01:29:4653.6623-5.773521502417586Clb=-9.2m/s t=-57.8C h=1.4% p=-1.0hPa 403.901 MHz Type=RS41-SG ser=U1060169 Radiosonde
GB3EI-15U10601692022-12-07 01:29:3753.6627-5.773911391917660Clb=-9.3m/s t=-57.7C h=1.4% p=-1.0hPa 403.900 MHz Type=RS41-SG ser=U1060169 Radiosonde
G4VFL-14U10601692022-12-07 01:29:3453.6628-5.774071362417688Clb=-9.4m/s t=-57.8C h=4.5% 403.90MHz Type=RS41-SG Details on http://radiosondy.info
G4VFL-14U10601692022-12-07 01:29:1853.6636-5.774911583117836Clb=-9.7m/s t=-58.0C h=4.5% 403.90MHz Type=RS41-SG batt=2.4V Details on http://radiosondy.info
G3HRZU10601692022-12-07 01:29:1553.6643-5.77531683717919Clb=-9.5m/s t=-58.5C h=1.4% p=-1.0hPa 403.901 MHz Type=RS41-SG ser=U1060169 Radiosonde
GB3EI-15U10601692022-12-07 01:29:0653.6646-5.775381724317948Clb=-9.9m/s t=-58.6C h=1.5% p=-1.0hPa 403.900 MHz Type=RS41-SG ser=U1060169 Radiosonde
G3HRZU10601692022-12-07 01:28:4453.6666-5.776091633118152Clb=-9.4m/s t=-57.9C h=1.4% p=-1.0hPa 403.901 MHz Type=RS41-SG ser=U1060169 Radiosonde
GB3EI-15U10601692022-12-07 01:28:3553.6673-5.776471552418238Clb=-9.3m/s t=-58.1C h=1.4% p=-1.0hPa 403.900 MHz Type=RS41-SG ser=U1060169 Radiosonde
G3HRZU10601692022-12-07 01:28:1353.6684-5.778131233118450Clb=-9.8m/s t=-58.8C h=1.5% p=-1.0hPa 403.901 MHz Type=RS41-SG ser=U1060169 Radiosonde
GB3EI-15U10601692022-12-07 01:28:0453.6688-5.779261163018546Clb=-10.1m/s t=-59.1C h=1.5% p=-1.0hPa 403.900 MHz Type=RS41-SG ser=U1060169 Radiosonde
G4VFL-14U10601692022-12-07 01:28:0353.6688-5.779261172618546Clb=-10.1m/s t=-59.1C h=4.9% 403.90MHz Type=RS41-SG Details on http://radiosondy.info
G4VFL-14U10601692022-12-07 01:27:4853.6691-5.780821142818694Clb=-10.0m/s t=-59.3C h=5.0% 403.90MHz Type=RS41-SG Details on http://radiosondy.info
G3HRZU10601692022-12-07 01:27:4253.6693-5.781341242818754Clb=-9.9m/s t=-59.4C h=1.5% p=-1.0hPa 403.901 MHz Type=RS41-SG ser=U1060169 Radiosonde
G4VFL-14U10601692022-12-07 01:27:3353.6697-5.782371163318845Clb=-10.2m/s t=-59.5C h=4.9% 403.90MHz Type=RS41-SG TxOff=8h17m batt=2.4V Details on http://radiosondy.info
G4VFL-14U10601692022-12-07 01:27:1853.6704-5.784021383118997Clb=-10.2m/s t=-60.3C h=5.2% 403.90MHz Type=RS41-SG Details on http://radiosondy.info
G3HRZU10601692022-12-07 01:27:1153.6708-5.784641383019069Clb=-10.8m/s t=-60.4C h=1.6% p=-1.0hPa 403.901 MHz Type=RS41-SG ser=U1060169 Radiosonde
G4VFL-14U10601692022-12-07 01:27:0253.6714-5.785381453119162Clb=-10.3m/s t=-60.4C h=5.1% 403.90MHz Type=RS41-SG Details on http://radiosondy.info
G4VFL-14U10601692022-12-07 01:26:4753.6723-5.786621413019320Clb=-10.5m/s t=-60.8C h=5.2% 403.90MHz Type=RS41-SG batt=2.4V Details on http://radiosondy.info
G3HRZU10601692022-12-07 01:26:4053.6727-5.787141483119394Clb=-10.8m/s t=-61.2C h=1.7% p=-1.0hPa 403.901 MHz Type=RS41-SG ser=U1060169 Radiosonde
G4VFL-14U10601692022-12-07 01:26:3153.6733-5.787671503019491Clb=-10.4m/s t=-61.4C h=5.4% 403.90MHz Type=RS41-SG Details on http://radiosondy.info
G4VFL-14U10601692022-12-07 01:26:1653.6743-5.788441534319652Clb=-11.2m/s t=-62.2C h=5.6% 403.90MHz Type=RS41-SG Details on http://radiosondy.info
G3HRZU10601692022-12-07 01:26:0953.6747-5.788911472419739Clb=-11.0m/s t=-62.6C h=1.7% p=-1.0hPa 403.901 MHz Type=RS41-SG ser=U1060169 Radiosonde
GB3EI-15U10601692022-12-07 01:25:5953.6752-5.789471332219836Clb=-11.1m/s t=-62.6C h=1.7% p=-1.0hPa 403.900 MHz Type=RS41-SG ser=U1060169 Radiosonde
G3HRZU10601692022-12-07 01:25:3853.676-5.791061292820066Clb=-10.7m/s t=-62.8C h=1.8% p=-1.0hPa 403.901 MHz Type=RS41-SG ser=U1060169 Radiosonde
GB3EI-15U10601692022-12-07 01:25:2853.6765-5.792021403120177Clb=-11.1m/s t=-273.0C h=-1.0% p=-1.0hPa 403.900 MHz Type=RS41-SG ser=U1060169 Radiosonde
G3HRZU10601692022-12-07 01:25:0753.6782-5.794661295220411Clb=-11.4m/s t=-61.8C h=1.7% p=-1.0hPa 403.901 MHz Type=RS41-SG ser=U1060169 Radiosonde
GB3EI-15U10601692022-12-07 01:24:5753.679-5.796431305220525Clb=-11.4m/s t=-273.0C h=-1.0% p=-1.0hPa 403.900 MHz Type=RS41-SG ser=U1060169 Radiosonde
G4VFL-14U10601692022-12-07 01:24:5453.6793-5.796941304820559Clb=-11.2m/s t=-62.1C h=5.5% 403.90MHz Type=RS41-SG batt=2.4V Details on http://radiosondy.info
G4VFL-14U10601692022-12-07 01:24:3853.6805-5.799471294820743Clb=-11.9m/s t=-62.5C h=5.7% 403.90MHz Type=RS41-SG Details on http://radiosondy.info
G3HRZU10601692022-12-07 01:24:3653.6808-5.799921324620778Clb=-12.0m/s t=-62.6C h=1.7% p=-1.0hPa 403.901 MHz Type=RS41-SG ser=U1060169 Radiosonde
GB3EI-15U10601692022-12-07 01:24:2653.6815-5.801181354320884Clb=-11.8m/s t=-273.0C h=-1.0% p=-1.0hPa 403.900 MHz Type=RS41-SG ser=U1060169 Radiosonde
G4VFL-14U10601692022-12-07 01:24:2253.6818-5.801661444320932Clb=-12.5m/s t=-63.2C h=6.0% 403.90MHz Type=RS41-SG Details on http://radiosondy.info
G4VFL-14U10601692022-12-07 01:24:0553.6834-5.803031633721135Clb=-12.1m/s t=-62.6C h=5.5% 403.90MHz Type=RS41-SG TxOff=8h21m batt=2.4V Details on http://radiosondy.info
G4VFL-14U10601692022-12-07 01:23:5053.6847-5.803761543721317Clb=-12.4m/s t=-63.7C h=6.0% 403.90MHz Type=RS41-SG Details on http://radiosondy.info
G4VFL-14U10601692022-12-07 01:23:3453.6859-5.805231444121514Clb=-12.8m/s t=-63.8C h=6.2% 403.90MHz Type=RS41-SG Details on http://radiosondy.info
G4VFL-14U10601692022-12-07 01:23:1853.6873-5.806721534421718Clb=-12.8m/s t=-63.3C h=5.9% 403.90MHz Type=RS41-SG batt=2.4V Details on http://radiosondy.info
G3HRZU10601692022-12-07 01:23:0353.6894-5.808371565421925Clb=-13.2m/s t=-63.7C h=1.8% p=-1.0hPa 403.901 MHz Type=RS41-SG ser=U1060169 Radiosonde
G3HRZU10601692022-12-07 01:22:3253.6926-5.810991443522343Clb=-13.2m/s t=-62.8C h=1.6% p=-1.0hPa 403.901 MHz Type=RS41-SG ser=U1060169 Radiosonde
G3HRZU10601692022-12-07 01:22:0153.695-5.813421293322774Clb=-14.2m/s t=-64.5C h=1.8% p=-1.0hPa 403.901 MHz Type=RS41-SG ser=U1060169 Radiosonde
G4VFL-14U10601692022-12-07 01:21:5353.6955-5.814211424122873Clb=-14.8m/s t=-64.4C h=6.4% 403.90MHz Type=RS41-SG Details on http://radiosondy.info
G4VFL-14U10601692022-12-07 01:21:3553.6971-5.815811614623138Clb=-15.0m/s t=-64.1C h=5.8% 403.90MHz Type=RS41-SG Details on http://radiosondy.info
G3HRZU10601692022-12-07 01:21:2953.6977-5.816261514123228Clb=-14.9m/s t=-64.6C h=1.7% p=-1.0hPa 403.901 MHz Type=RS41-SG ser=U1060169 Radiosonde
G4VFL-14U10601692022-12-07 01:21:2053.6986-5.817151575623361Clb=-14.3m/s t=-65.4C h=6.2% 403.90MHz Type=RS41-SG batt=2.5V Details on http://radiosondy.info
G4VFL-14U10601692022-12-07 01:21:0453.7006-5.818511604823601Clb=-15.9m/s t=-66.1C h=6.5% 403.90MHz Type=RS41-SG Details on http://radiosondy.info
G3HRZU10601692022-12-07 01:20:5853.7013-5.81911504823693Clb=-15.5m/s t=-66.5C h=1.8% p=-1.0hPa 403.901 MHz Type=RS41-SG ser=U1060169 Radiosonde
G4VFL-14U10601692022-12-07 01:20:4753.7023-5.82031405723862Clb=-16.6m/s t=-66.6C h=6.7% 403.90MHz Type=RS41-SG Details on http://radiosondy.info
G4VFL-14U10601692022-12-07 01:20:3253.704-5.822661446924096Clb=-15.7m/s t=-67.1C h=6.9% 403.90MHz Type=RS41-SG TxOff=8h25m batt=2.5V Details on http://radiosondy.info
G3HRZU10601692022-12-07 01:20:2753.7047-5.823461466924175Clb=-16.3m/s t=-67.4C h=2.0% p=-1.0hPa 403.901 MHz Type=RS41-SG ser=U1060169 Radiosonde
G4VFL-14U10601692022-12-07 01:20:1653.7063-5.825281468024351Clb=-16.1m/s t=-67.0C h=7.1% 403.90MHz Type=RS41-SG Details on http://radiosondy.info
G3HRZU10601692022-12-07 01:19:5653.709-5.829371346124674Clb=-16.2m/s t=-66.7C h=1.8% p=-1.0hPa 403.901 MHz Type=RS41-SG ser=U1060169 Radiosonde
G3HRZU10601692022-12-07 01:19:2553.7128-5.8361468025189Clb=-16.9m/s t=-66.0C h=1.8% p=-1.0hPa 403.901 MHz Type=RS41-SG ser=U1060169 Radiosonde
G3HRZU10601692022-12-07 01:18:5453.7183-5.840851607025734Clb=-18.3m/s t=-66.1C h=1.7% p=-1.0hPa 403.901 MHz Type=RS41-SG ser=U1060169 Radiosonde
G4VFL-14U10601692022-12-07 01:18:5253.7186-5.841031615725771Clb=-19.0m/s t=-65.9C h=6.1% 403.90MHz Type=RS41-SG Details on http://radiosondy.info
G4VFL-14U10601692022-12-07 01:18:3653.7207-5.842941456726065Clb=-19.1m/s t=-66.8C h=6.4% 403.90MHz Type=RS41-SG batt=2.4V Details on http://radiosondy.info
G3HRZU10601692022-12-07 01:18:2353.7223-5.845361256726310Clb=-19.4m/s t=-68.4C h=2.0% p=-1.0hPa 403.901 MHz Type=RS41-SG ser=U1060169 Radiosonde
G4VFL-14U10601692022-12-07 01:18:2053.7226-5.846061247426366Clb=-20.0m/s t=-68.2C h=7.1% 403.90MHz Type=RS41-SG Details on http://radiosondy.info
G4VFL-14U10601692022-12-07 01:18:0453.7246-5.84961458026675Clb=-19.7m/s t=-68.0C h=6.9% 403.90MHz Type=RS41-SG Details on http://radiosondy.info
G3HRZU10601692022-12-07 01:17:5253.7268-5.852031507826933Clb=-20.1m/s t=-68.3C h=1.9% p=-1.0hPa 403.901 MHz Type=RS41-SG ser=U1060169 Radiosonde
G4VFL-14U10601692022-12-07 01:17:4853.7273-5.85251548326993Clb=-19.5m/s t=-68.5C h=7.0% 403.90MHz Type=RS41-SG batt=2.4V Details on http://radiosondy.info
G4VFL-14U10601692022-12-07 01:17:3253.7304-5.854121658327316Clb=-20.3m/s t=-69.2C h=7.1% 403.90MHz Type=RS41-SG Details on http://radiosondy.info
G3HRZU10601692022-12-07 01:17:2153.7325-5.855631508027544Clb=-21.7m/s t=-69.8C h=1.9% p=-1.0hPa 403.901 MHz Type=RS41-SG ser=U1060169 Radiosonde
G4VFL-14U10601692022-12-07 01:17:1753.7331-5.8564214210627628Clb=-21.8m/s t=-70.1C h=7.2% 403.90MHz Type=RS41-SG Details on http://radiosondy.info
G3HRZU10601692022-12-07 01:16:5053.7376-5.862981479128219Clb=-22.3m/s t=-72.5C h=2.6% p=-1.0hPa 403.901 MHz Type=RS41-SG ser=U1060169 Radiosonde
G3HRZU10601692022-12-07 01:16:1953.7416-5.8705611812828866Clb=-19.9m/s t=-71.6C h=2.3% p=-1.0hPa 403.901 MHz Type=RS41-SG ser=U1060169 Radiosonde
G4VFL-14U10601692022-12-07 01:15:5253.745-5.87941578529430Clb=-21.0m/s t=-70.3C h=8.5% 403.90MHz Type=RS41-SG TxPastBurst=8h30m batt=2.4V Details on http://radiosondy.info
G3HRZU10601692022-12-07 01:15:5053.7456-5.879771576529492Clb=-22.0m/s t=-69.7C h=2.1% p=-1.0hPa 403.901 MHz Type=RS41-SG ser=U1060169 Radiosonde
G4VFL-14U10601692022-12-07 01:15:4053.7468-5.8839212412629765Clb=-21.7m/s t=-68.6C h=6.8% 403.90MHz Type=RS41-SG Details on http://radiosondy.info
G4VFL-14U10601692022-12-07 01:15:2653.7509-5.8883314011330099Clb=-22.9m/s t=-70.2C h=8.3% 403.90MHz Type=RS41-SG Details on http://radiosondy.info
G3HRZU10601692022-12-07 01:15:2553.7512-5.888831328730144Clb=-24.0m/s t=-70.4C h=2.2% p=-1.0hPa 403.901 MHz Type=RS41-SG ser=U1060169 Radiosonde
G4VFL-14U10601692022-12-07 01:15:1553.7534-5.8941212312630659Clb=-20.6m/s t=-69.6C h=7.4% 403.90MHz Type=RS41-SG batt=2.4V Details on http://radiosondy.info
GURGE2-15U10601692022-12-07 01:15:0453.7562-5.9012412213030626Clb=4.9m/s t=-70.2C h=-1.0% p=-1.0hPa 403.901 MHz Type=RS41-SG ser=U1060169 Radiosonde
G4VFL-14U10601692022-12-07 01:14:5953.7562-5.9012412313030626Clb=4.9m/s t=-70.1C h=7.7% 403.90MHz Type=RS41-SG Details on http://radiosondy.info
G3HRZU10601692022-12-07 01:14:5853.7566-5.9021612413330617Clb=4.2m/s t=-70.2C h=2.0% p=-1.0hPa 403.901 MHz Type=RS41-SG ser=U1060169 Radiosonde
G4VFL-14U10601692022-12-07 01:14:4753.7591-5.9090911912630549Clb=4.2m/s t=-70.2C h=7.9% 403.90MHz Type=RS41-SG Details on http://radiosondy.info
GURGE2-15U10601692022-12-07 01:14:3753.7613-5.9148512013030492Clb=4.4m/s t=-273.0C h=-1.0% p=-1.0hPa 403.901 MHz Type=RS41-SG ser=U1060169 Radiosonde
G4VFL-14U10601692022-12-07 01:14:3353.7618-5.9161612811330478Clb=4.6m/s t=-69.9C h=7.5% 403.90MHz Type=RS41-SG batt=2.5V Details on http://radiosondy.info
GURGE2-15U10601692022-12-07 01:14:1153.7669-5.9275313112430349Clb=5.5m/s t=-273.0C h=-1.0% p=-1.0hPa 403.901 MHz Type=RS41 ser=U1060169 Radiosonde
G3HRZU10601692022-12-07 01:14:0653.7678-5.9290113311930331Clb=4.1m/s t=-70.6C h=2.1% p=-1.0hPa 403.901 MHz Type=RS41-SG ser=U1060169 Radiosonde
G3HRZU10601692022-12-07 01:13:3753.7738-5.9398513311930182Clb=5.2m/s t=-70.7C h=2.2% p=-1.0hPa 403.901 MHz Type=RS41-SG ser=U1060169 Radiosonde
G4VFL-14U10601692022-12-07 01:13:1953.7777-5.9454114610630089Clb=4.5m/s t=-70.1C h=8.0% 403.90MHz Type=RS41-SG Details on http://radiosondy.info
G3HRZU10601692022-12-07 01:13:0853.7801-5.9486914110930029Clb=5.2m/s t=-69.8C h=2.0% p=-1.0hPa 403.901 MHz Type=RS41-SG ser=U1060169 Radiosonde
G4VFL-14U10601692022-12-07 01:13:0553.7807-5.949491439630013Clb=5.4m/s t=-69.8C h=7.7% 403.90MHz Type=RS41-SG Details on http://radiosondy.info
G4VFL-14U10601692022-12-07 01:12:5053.7836-5.953011539629940Clb=4.7m/s t=-69.7C h=8.1% 403.90MHz Type=RS41-SG TxPastBurst=8h30m batt=2.5V Details on http://radiosondy.info
G3HRZU10601692022-12-07 01:12:3853.786-5.9561614110429872Clb=5.0m/s t=-69.3C h=2.1% p=-1.0hPa 403.901 MHz Type=RS41-SG ser=U1060169 Radiosonde
G4VFL-14U10601692022-12-07 01:12:3553.7866-5.956951439829858Clb=5.5m/s t=-69.1C h=7.7% 403.90MHz Type=RS41-SG Details on http://radiosondy.info
G4VFL-14U10601692022-12-07 01:12:1753.79-5.9616413710029763Clb=5.8m/s t=-68.5C h=7.3% 403.90MHz Type=RS41-SG Details on http://radiosondy.info
G3HRZU10601692022-12-07 01:12:0853.792-5.964561389629710Clb=5.7m/s t=-68.8C h=2.0% p=-1.0hPa 403.901 MHz Type=RS41-SG ser=U1060169 Radiosonde
G4VFL-14U10601692022-12-07 01:12:0153.793-5.966213210429679Clb=5.3m/s t=-68.9C h=7.5% 403.90MHz Type=RS41-SG batt=2.5V Details on http://radiosondy.info
G4VFL-14U10601692022-12-07 01:11:4553.7959-5.971121329629600Clb=5.1m/s t=-69.0C h=7.4% 403.90MHz Type=RS41-SG Details on http://radiosondy.info
G3HRZU10601692022-12-07 01:11:3753.7972-5.973981399429554Clb=5.3m/s t=-69.3C h=2.0% p=-1.0hPa 403.901 MHz Type=RS41-SG ser=U1060169 Radiosonde
GURGE2-15U10601692022-12-07 01:11:1253.8012-5.98311268929406Clb=5.6m/s t=-273.0C h=-1.0% p=-1.0hPa 403.901 MHz Type=RS41 ser=U1060169 Radiosonde
G3HRZU10601692022-12-07 01:11:0753.8014-5.983711228529396Clb=5.2m/s t=-70.2C h=2.1% p=-1.0hPa 403.901 MHz Type=RS41-SG ser=U1060169 Radiosonde
G3HRZU10601692022-12-07 01:10:3653.804-5.993181067829236Clb=5.5m/s t=-71.0C h=2.3% p=-1.0hPa 403.901 MHz Type=RS41-SG ser=U1060169 Radiosonde
G4VFL-14U10601692022-12-07 01:10:2053.8051-5.998171218029158Clb=4.6m/s t=-71.3C h=8.4% 403.90MHz Type=RS41-SG batt=2.6V Details on http://radiosondy.info
G3HRZU10601692022-12-07 01:10:0653.8063-6.00261206729086Clb=5.4m/s t=-71.4C h=2.4% p=-1.0hPa 403.901 MHz Type=RS41-SG ser=U1060169 Radiosonde
G4VFL-14U10601692022-12-07 01:10:0553.8063-6.00261218529086Clb=5.4m/s t=-71.4C h=8.6% 403.90MHz Type=RS41-SG Details on http://radiosondy.info
G4VFL-14U10601692022-12-07 01:09:4953.8079-6.007281208529016Clb=4.6m/s t=-71.2C h=8.4% 403.90MHz Type=RS41-SG Details on http://radiosondy.info
G3HRZU10601692022-12-07 01:09:3353.8095-6.012191258128944Clb=4.5m/s t=-71.4C h=2.3% p=-1.0hPa 403.901 MHz Type=RS41-SG ser=U1060169 Radiosonde
G4VFL-14U10601692022-12-07 01:09:1553.8108-6.016561256728873Clb=4.3m/s t=-71.7C h=8.7% 403.90MHz Type=RS41-SG Details on http://radiosondy.info
G3HRZU10601692022-12-07 01:08:5953.8122-6.020451255928802Clb=4.4m/s t=-71.4C h=2.5% p=-1.0hPa 403.901 MHz Type=RS41-SG ser=U1060169 Radiosonde
G4VFL-14U10601692022-12-07 01:08:4253.8139-6.024451288328731Clb=4.9m/s t=-71.0C h=8.3% 403.90MHz Type=RS41-SG batt=2.5V Details on http://radiosondy.info
G3HRZU10601692022-12-07 01:08:2753.8156-6.028191317628663Clb=4.2m/s t=-71.0C h=2.3% p=-1.0hPa 403.901 MHz Type=RS41-SG ser=U1060169 Radiosonde
G3HRZU10601692022-12-07 01:07:5653.8197-6.036071388528521Clb=5.3m/s t=-72.4C h=2.4% p=-1.0hPa 403.901 MHz Type=RS41-SG ser=U1060169 Radiosonde
G3HRZU10601692022-12-07 01:07:2153.8251-6.043921418928368Clb=4.7m/s t=-73.1C h=2.6% p=-1.0hPa 403.901 MHz Type=RS41-SG ser=U1060169 Radiosonde
G4VFL-14U10601692022-12-07 01:07:1253.8259-6.045131407828346Clb=4.1m/s t=-73.0C h=9.0% 403.90MHz Type=RS41-SG Details on http://radiosondy.info
G4VFL-14U10601692022-12-07 01:06:5553.8281-6.048191447628276Clb=5.2m/s t=-73.0C h=9.2% 403.90MHz Type=RS41-SG Details on http://radiosondy.info
G3HRZU10601692022-12-07 01:06:4553.8295-6.04991397028234Clb=5.1m/s t=-72.8C h=2.5% p=-1.0hPa 403.901 MHz Type=RS41-SG ser=U1060169 Radiosonde
G4VFL-14U10601692022-12-07 01:06:3953.8304-6.051011478128206Clb=4.2m/s t=-72.6C h=8.9% 403.90MHz Type=RS41-SG batt=2.5V Details on http://radiosondy.info
G4VFL-14U10601692022-12-07 01:06:2153.833-6.054381448528132Clb=5.4m/s t=-72.5C h=9.0% 403.90MHz Type=RS41-SG Details on http://radiosondy.info
G3HRZU10601692022-12-07 01:06:1153.8345-6.056231347828088Clb=4.6m/s t=-72.2C h=2.4% p=-1.0hPa 403.901 MHz Type=RS41-SG ser=U1060169 Radiosonde
G4VFL-14U10601692022-12-07 01:06:0253.8358-6.058061418728049Clb=5.5m/s t=-72.0C h=8.7% 403.90MHz Type=RS41-SG Details on http://radiosondy.info
G4VFL-14U10601692022-12-07 01:05:4553.8384-6.061961378727968Clb=5.0m/s t=-71.7C h=8.6% 403.90MHz Type=RS41-SG TxPastBurst=8h30m batt=2.5V Details on http://radiosondy.info
G3HRZU10601692022-12-07 01:05:3553.8402-6.065051358927908Clb=4.7m/s t=-71.6C h=2.3% p=-1.0hPa 403.901 MHz Type=RS41-SG ser=U1060169 Radiosonde
G4VFL-14U10601692022-12-07 01:05:2653.8408-6.066141348727888Clb=5.0m/s t=-71.6C h=8.6% 403.90MHz Type=RS41-SG Details on http://radiosondy.info
G3HRZU10601692022-12-07 01:05:0153.8443-6.072221358327778Clb=6.1m/s t=-71.0C h=-1.0% p=-1.0hPa 403.901 MHz Type=RS41-SG ser=U1060169 Radiosonde
G3HRZU10601692022-12-07 01:04:2753.8495-6.079481427627612Clb=5.8m/s t=-70.1C h=-1.0% p=-1.0hPa 403.901 MHz Type=RS41-SG ser=U1060169 Radiosonde
G3HRZU10601692022-12-07 01:03:5453.855-6.084121557827453Clb=6.1m/s t=-69.3C h=-1.0% p=-1.0hPa 403.901 MHz Type=RS41-SG ser=U1060169 Radiosonde
G4VFL-14U10601692022-12-07 01:03:5253.8554-6.084411548527443Clb=3.4m/s t=-69.2C h=7.6% 403.90MHz Type=RS41-SG Details on http://radiosondy.info
G4VFL-14U10601692022-12-07 01:03:3553.8588-6.086211639127358Clb=4.9m/s t=-69.2C h=7.4% 403.90MHz Type=RS41-SG batt=2.5V Details on http://radiosondy.info
G3HRZU10601692022-12-07 01:03:2353.8616-6.087041638927290Clb=4.8m/s t=-273.0C h=-1.0% p=-1.0hPa 403.901 MHz Type=RS41-SG ser=U1060169 Radiosonde
G4VFL-14U10601692022-12-07 01:03:2053.8621-6.087271648927279Clb=5.2m/s t=-69.3C h=7.6% 403.90MHz Type=RS41-SG Details on http://radiosondy.info
G4VFL-14U10601692022-12-07 01:03:0553.8653-6.088521659127205Clb=4.1m/s t=-69.0C h=7.4% 403.90MHz Type=RS41-SG Details on http://radiosondy.info
GURGE2-15U10601692022-12-07 01:02:5753.8675-6.089511638927156Clb=5.1m/s t=-69.1C h=2.1% p=-1.0hPa 403.901 MHz Type=RS41-SG ser=U1060169 Radiosonde
G3HRZU10601692022-12-07 01:02:5253.8683-6.089991639427136Clb=5.1m/s t=-273.0C h=-1.0% p=-1.0hPa 403.901 MHz Type=RS41 ser=U1060169 Radiosonde
G4VFL-14U10601692022-12-07 01:02:4953.8688-6.090211658527128Clb=4.5m/s t=-69.0C h=7.6% 403.90MHz Type=RS41-SG batt=2.5V Details on http://radiosondy.info
G4VFL-14U10601692022-12-07 01:02:3453.8717-6.092261598027053Clb=4.6m/s t=-68.8C h=7.5% 403.90MHz Type=RS41-SG Details on http://radiosondy.info
GURGE2-15U10601692022-12-07 01:02:2653.8732-6.093421537627014Clb=4.0m/s t=-68.5C h=2.0% p=-1.0hPa 403.901 MHz Type=RS41-SG ser=U1060169 Radiosonde
G4VFL-14U10601692022-12-07 01:02:1753.8747-6.09491558026972Clb=4.9m/s t=-68.2C h=7.1% 403.90MHz Type=RS41-SG Details on http://radiosondy.info
GURGE2-15U10601692022-12-07 01:01:5553.8786-6.098771518026863Clb=5.0m/s t=-68.8C h=2.0% p=-1.0hPa 403.901 MHz Type=RS41-SG ser=U1060169 Radiosonde
GURGE2-15U10601692022-12-07 01:01:2553.884-6.105471378326699Clb=5.4m/s t=-68.1C h=1.9% p=-1.0hPa 403.901 MHz Type=RS41-SG ser=U1060169 Radiosonde
GURGE2-15U10601692022-12-07 01:00:5453.8884-6.111991298026547Clb=5.5m/s t=-68.4C h=1.9% p=-1.0hPa 403.901 MHz Type=RS41-SG ser=U1060169 Radiosonde
GURGE2-15U10601692022-12-07 01:00:5353.8917-6.119361247826389Clb=5.2m/s t=-68.3C h=1.9% p=-1.0hPa 403.901 MHz Type=RS41-SG ser=U1060169 Radiosonde
G4VFL-14U10601692022-12-07 01:00:5253.8936-6.123691336726292Clb=5.7m/s t=-68.1C h=7.4% 403.90MHz Type=RS41-SG batt=2.5V Details on http://radiosondy.info
GURGE2-15U10601692022-12-07 01:00:5153.8951-6.126251366926225Clb=4.8m/s t=-67.8C h=2.0% p=-1.0hPa 403.901 MHz Type=RS41-SG ser=U1060169 Radiosonde
GURGE2-15U10601692022-12-07 01:00:5053.8988-6.131541485726060Clb=4.7m/s t=-66.8C h=1.8% p=-1.0hPa 403.901 MHz Type=RS41-SG ser=U1060169 Radiosonde
GURGE2-15U10601692022-12-07 01:00:4853.9023-6.135171515725901Clb=5.8m/s t=-66.3C h=1.7% p=-1.0hPa 403.901 MHz Type=RS41-SG ser=U1060169 Radiosonde
GURGE2-15U10601692022-12-07 01:00:4653.9073-6.138841578325727Clb=5.4m/s t=-65.4C h=1.6% p=-1.0hPa 403.901 MHz Type=RS41-SG ser=U1060169 Radiosonde
G4VFL-14U10601692022-12-07 01:00:3953.912-6.141571558125589Clb=6.2m/s t=-65.9C h=6.7% 403.90MHz Type=RS41-SG Details on http://radiosondy.info
GURGE2-15U10601692022-12-07 01:00:3853.9132-6.142551528325556Clb=4.9m/s t=-65.7C h=1.8% p=-1.0hPa 403.901 MHz Type=RS41-SG ser=U1060169 Radiosonde
G4VFL-14U10601692022-12-07 01:00:3653.9148-6.143821508525505Clb=5.4m/s t=-65.4C h=6.3% 403.90MHz Type=RS41-SG Details on http://radiosondy.info
G4VFL-14U10601692022-12-07 01:00:3153.9178-6.146651418725415Clb=5.3m/s t=-65.3C h=6.2% 403.90MHz Type=RS41-SG TxPastBurst=8h30m batt=2.6V Details on http://radiosondy.info
GURGE2-15U10601692022-12-07 01:00:3053.9189-6.147931527825383Clb=6.1m/s t=-65.5C h=1.7% p=-1.0hPa 403.901 MHz Type=RS41-SG ser=U1060169 Radiosonde
G4VFL-14U10601692022-12-07 01:00:2753.9208-6.150211408525323Clb=6.1m/s t=-65.5C h=6.6% 403.90MHz Type=RS41-SG Details on http://radiosondy.info
GURGE2-15U10601692022-12-07 01:00:2153.9241-6.154831388025219Clb=4.7m/s t=-65.2C h=1.7% p=-1.0hPa 403.901 MHz Type=RS41-SG ser=U1060169 Radiosonde
G4VFL-14U10601692022-12-07 01:00:2053.9289-6.161111417825077Clb=5.9m/s t=-65.5C h=6.4% 403.90MHz Type=RS41-SG Details on http://radiosondy.info
GURGE2-15U10601692022-12-07 01:00:1953.933-6.16941206924911Clb=5.0m/s t=-65.6C h=1.8% p=-1.0hPa 403.901 MHz Type=RS41-SG ser=U1060169 Radiosonde
GURGE2-15U10601692022-12-07 01:00:0253.9358-6.176621286124777Clb=5.1m/s t=-66.7C h=1.9% p=-1.0hPa 403.901 MHz Type=RS41-SG ser=U1060169 Radiosonde
G4VFL-14U10601692022-12-07 00:59:5553.9363-6.177831295924749Clb=4.0m/s t=-66.8C h=7.0% 403.90MHz Type=RS41-SG Details on http://radiosondy.info
G4VFL-14U10601692022-12-07 00:59:3553.9378-6.1811336724675Clb=4.6m/s t=-66.6C h=6.9% 403.90MHz Type=RS41-SG batt=2.5V Details on http://radiosondy.info
GURGE2-15U10601692022-12-07 00:59:2353.9389-6.182881346724634Clb=4.5m/s t=-66.5C h=1.9% p=-1.0hPa 403.901 MHz Type=RS41-SG ser=U1060169 Radiosonde
G4VFL-14U10601692022-12-07 00:59:1553.9395-6.184091357024607Clb=5.3m/s t=-66.4C h=6.8% 403.90MHz Type=RS41-SG Details on http://radiosondy.info
G4VFL-14U10601692022-12-07 00:58:5353.9414-6.18731387224540Clb=3.4m/s t=-66.4C h=6.8% 403.90MHz Type=RS41-SG Details on http://radiosondy.info
GURGE2-15U10601692022-12-07 00:58:4053.9425-6.189581317224493Clb=3.9m/s t=-66.5C h=1.9% p=-1.0hPa 403.901 MHz Type=RS41-SG ser=U1060169 Radiosonde
G4VFL-14U10601692022-12-07 00:58:3353.9432-6.190741347624469Clb=4.8m/s t=-66.7C h=6.8% 403.90MHz Type=RS41-SG TxPastBurst=8h30m batt=2.5V Details on http://radiosondy.info
G4VFL-14U10601692022-12-07 00:58:1153.9455-6.194171457224393Clb=3.8m/s t=-67.1C h=6.9% 403.90MHz Type=RS41-SG Details on http://radiosondy.info
GURGE2-15U10601692022-12-07 00:57:5853.9468-6.196061467624343Clb=4.9m/s t=-67.7C h=2.0% p=-1.0hPa 403.901 MHz Type=RS41-SG ser=U1060169 Radiosonde
G4VFL-14U10601692022-12-07 00:57:5153.9477-6.19711387024314Clb=4.5m/s t=-67.8C h=7.3% 403.90MHz Type=RS41-SG Details on http://radiosondy.info
G4VFL-14U10601692022-12-07 00:57:2753.95-6.200141435024231Clb=4.5m/s t=-67.7C h=7.3% 403.90MHz Type=RS41-SG batt=2.5V Details on http://radiosondy.info
GURGE2-15U10601692022-12-07 00:57:1653.9511-6.201521496524191Clb=5.2m/s t=-67.6C h=2.0% p=-1.0hPa 403.901 MHz Type=RS41-SG ser=U1060169 Radiosonde
GURGE2-15U10601692022-12-07 00:56:3553.9548-6.206371375224030Clb=6.2m/s t=-67.4C h=2.0% p=-1.0hPa 403.901 MHz Type=RS41-SG ser=U1060169 Radiosonde
GURGE2-15U10601692022-12-07 00:55:5353.9578-6.210841483723864Clb=6.1m/s t=-67.4C h=2.0% p=-1.0hPa 403.901 MHz Type=RS41-SG ser=U1060169 Radiosonde
G4VFL-14U10601692022-12-07 00:55:3753.9586-6.21161404423813Clb=6.1m/s t=-67.1C h=7.0% 403.90MHz Type=RS41-SG Details on http://radiosondy.info
G4VFL-14U10601692022-12-07 00:55:1653.9602-6.213021434623733Clb=4.8m/s t=-67.0C h=7.0% 403.90MHz Type=RS41-SG Details on http://radiosondy.info
GURGE2-15U10601692022-12-07 00:55:1153.9606-6.213561544423707Clb=5.6m/s t=-66.9C h=2.0% p=-1.0hPa 403.901 MHz Type=RS41-SG ser=U1060169 Radiosonde
G4VFL-14U10601692022-12-07 00:54:5553.9618-6.214541555023654Clb=4.3m/s t=-66.5C h=6.9% 403.90MHz Type=RS41-SG batt=2.5V Details on http://radiosondy.info
G4VFL-14U10601692022-12-07 00:54:3453.9636-6.215951585423576Clb=4.1m/s t=-66.1C h=6.8% 403.90MHz Type=RS41-SG Details on http://radiosondy.info
GURGE2-15U10601692022-12-07 00:54:3053.9641-6.216251615223557Clb=4.6m/s t=-66.1C h=1.9% p=-1.0hPa 403.901 MHz Type=RS41-SG ser=U1060169 Radiosonde
G4VFL-14U10601692022-12-07 00:54:0953.9658-6.217591555223493Clb=5.1m/s t=-65.8C h=6.6% 403.90MHz Type=RS41-SG Details on http://radiosondy.info
GURGE2-15U10601692022-12-07 00:53:4653.9678-6.219071475023418Clb=4.6m/s t=-65.6C h=1.8% p=-1.0hPa 403.901 MHz Type=RS41-SG ser=U1060169 Radiosonde
G4VFL-14U10601692022-12-07 00:53:4553.9678-6.219071485223418Clb=4.5m/s t=-65.5C h=6.6% 403.90MHz Type=RS41-SG TxPastBurst=8h30m batt=2.5V Details on http://radiosondy.info
G4VFL-14U10601692022-12-07 00:53:2353.9697-6.220631545023345Clb=4.4m/s t=-65.1C h=6.4% 403.90MHz Type=RS41-SG Details on http://radiosondy.info
GURGE2-15U10601692022-12-07 00:53:0353.9713-6.222071605023278Clb=3.9m/s t=-64.8C h=1.7% p=-1.0hPa 403.901 MHz Type=RS41-SG ser=U1060169 Radiosonde
GURGE2-15U10601692022-12-07 00:52:1453.9743-6.224441643923142Clb=5.4m/s t=-64.5C h=1.7% p=-1.0hPa 403.901 MHz Type=RS41-SG ser=U1060169 Radiosonde
G4VFL-14U10601692022-12-07 00:51:3853.9763-6.226381383923033Clb=4.0m/s t=-64.4C h=6.1% 403.90MHz Type=RS41-SG Details on http://radiosondy.info
GURGE2-15U10601692022-12-07 00:51:2753.9769-6.22711434323001Clb=4.8m/s t=-64.5C h=1.7% p=-1.0hPa 403.901 MHz Type=RS41-SG ser=U1060169 Radiosonde
G4VFL-14U10601692022-12-07 00:51:1553.9774-6.227981333322962Clb=5.6m/s t=-64.8C h=6.2% 403.90MHz Type=RS41-SG batt=2.5V Details on http://radiosondy.info
G4VFL-14U10601692022-12-07 00:50:5353.9782-6.22961313322891Clb=4.8m/s t=-64.9C h=6.3% 403.90MHz Type=RS41-SG Details on http://radiosondy.info
GURGE2-15U10601692022-12-07 00:50:4053.9787-6.230351432622852Clb=5.1m/s t=-65.1C h=1.8% p=-1.0hPa 403.901 MHz Type=RS41-SG ser=U1060169 Radiosonde
G4VFL-14U10601692022-12-07 00:50:2853.9792-6.231061513522814Clb=4.7m/s t=-64.9C h=6.4% 403.90MHz Type=RS41-SG Details on http://radiosondy.info
G4VFL-14U10601692022-12-07 00:50:0753.9803-6.23231543122740Clb=5.1m/s t=-64.7C h=6.3% 403.90MHz Type=RS41-SG batt=2.6V Details on http://radiosondy.info
GURGE2-15U10601692022-12-07 00:49:5453.9808-6.232821403722699Clb=5.7m/s t=-64.5C h=1.8% p=-1.0hPa 403.901 MHz Type=RS41-SG ser=U1060169 Radiosonde
G4VFL-14U10601692022-12-07 00:49:4253.9815-6.233381653322654Clb=5.5m/s t=-64.3C h=6.2% 403.90MHz Type=RS41-SG Details on http://radiosondy.info
G4VFL-14U10601692022-12-07 00:49:1853.9828-6.234351603922569Clb=4.9m/s t=-64.0C h=6.2% 403.90MHz Type=RS41-SG Details on http://radiosondy.info
GURGE2-15U10601692022-12-07 00:49:0953.9832-6.234661594122544Clb=5.7m/s t=-63.9C h=1.7% p=-1.0hPa 403.901 MHz Type=RS41-SG ser=U1060169 Radiosonde
G4VFL-14U10601692022-12-07 00:48:5553.9842-6.23511694322492Clb=5.3m/s t=-63.6C h=6.0% 403.90MHz Type=RS41-SG TxPastBurst=8h30m batt=2.6V Details on http://radiosondy.info
GURGE2-15U10601692022-12-07 00:48:2353.9862-6.236271644122384Clb=5.5m/s t=-63.6C h=1.6% p=-1.0hPa 403.901 MHz Type=RS41-SG ser=U1060169 Radiosonde
GURGE2-15U10601692022-12-07 00:47:3653.9893-6.238641535022232Clb=4.8m/s t=-64.0C h=1.7% p=-1.0hPa 403.901 MHz Type=RS41-SG ser=U1060169 Radiosonde
G4VFL-14U10601692022-12-07 00:47:1153.9911-6.240051585022154Clb=4.3m/s t=-63.9C h=5.9% 403.90MHz Type=RS41-SG Details on http://radiosondy.info
GURGE2-15U10601692022-12-07 00:46:4653.9928-6.24131645222085Clb=3.9m/s t=-64.3C h=1.8% p=-1.0hPa 403.901 MHz Type=RS41-SG ser=U1060169 Radiosonde
G4VFL-14U10601692022-12-07 00:46:4453.993-6.241361625422081Clb=5.2m/s t=-64.3C h=6.1% 403.90MHz Type=RS41-SG Details on http://radiosondy.info
G4VFL-14U10601692022-12-07 00:46:2153.9949-6.242821555922008Clb=4.1m/s t=-64.2C h=6.1% 403.90MHz Type=RS41-SG batt=2.5V Details on http://radiosondy.info
GURGE2-15U10601692022-12-07 00:45:5953.9968-6.244121615621945Clb=3.3m/s t=-64.4C h=1.8% p=-1.0hPa 403.901 MHz Type=RS41-SG ser=U1060169 Radiosonde
G4VFL-14U10601692022-12-07 00:45:5753.997-6.24421605921941Clb=4.9m/s t=-64.3C h=6.2% 403.90MHz Type=RS41-SG Details on http://radiosondy.info
G4VFL-14U10601692022-12-07 00:45:3453.9991-6.245671625621872Clb=4.2m/s t=-64.0C h=6.2% 403.90MHz Type=RS41-SG Details on http://radiosondy.info
GURGE2-15U10601692022-12-07 00:45:1154.0009-6.247091644821812Clb=4.1m/s t=-63.7C h=1.7% p=-1.0hPa 403.901 MHz Type=RS41-SG ser=U1060169 Radiosonde
G4VFL-14U10601692022-12-07 00:45:0854.0011-6.247181695021804Clb=4.1m/s t=-63.6C h=6.1% 403.90MHz Type=RS41-SG batt=2.5V Details on http://radiosondy.info
G4VFL-14U10601692022-12-07 00:44:4754.003-6.248521624821737Clb=4.3m/s t=-63.2C h=6.0% 403.90MHz Type=RS41-SG Details on http://radiosondy.info
GURGE2-15U10601692022-12-07 00:44:2754.0045-6.249751644421676Clb=4.5m/s t=-62.7C h=1.6% p=-1.0hPa 403.901 MHz Type=RS41-SG ser=U1060169 Radiosonde
G4VFL-14U10601692022-12-07 00:44:2454.0046-6.249791694321672Clb=5.0m/s t=-62.6C h=5.6% 403.90MHz Type=RS41-SG Details on http://radiosondy.info
GURGE2-15U10601692022-12-07 00:43:4854.0076-6.25171574321542Clb=4.0m/s t=-63.6C h=1.7% p=-1.0hPa 403.901 MHz Type=RS41-SG ser=U1060169 Radiosonde
GURGE2-15U10601692022-12-07 00:43:1754.0101-6.253931534421399Clb=4.8m/s t=-63.6C h=1.7% p=-1.0hPa 403.901 MHz Type=RS41-SG ser=U1060169 Radiosonde
G4VFL-14U10601692022-12-07 00:43:0654.011-6.254631523721351Clb=5.2m/s t=-63.6C h=6.0% 403.90MHz Type=RS41-SG TxPastBurst=8h30m batt=2.6V Details on http://radiosondy.info
G4VFL-14U10601692022-12-07 00:42:5154.0123-6.255411693521281Clb=4.9m/s t=-63.3C h=6.0% 403.90MHz Type=RS41-SG Details on http://radiosondy.info
GURGE2-15U10601692022-12-07 00:42:4654.0128-6.255581763321253Clb=4.5m/s t=-63.1C h=1.7% p=-1.0hPa 403.901 MHz Type=RS41-SG ser=U1060169 Radiosonde
G4VFL-14U10601692022-12-07 00:42:3854.0138-6.255881733921202Clb=5.3m/s t=-62.8C h=5.8% 403.90MHz Type=RS41-SG Details on http://radiosondy.info
G4VFL-14U10601692022-12-07 00:42:2154.0153-6.256421714121128Clb=4.6m/s t=-62.6C h=5.6% 403.90MHz Type=RS41-SG batt=2.5V Details on http://radiosondy.info
GURGE2-15U10601692022-12-07 00:42:1754.0157-6.256521713921109Clb=3.6m/s t=-62.6C h=1.6% p=-1.0hPa 403.901 MHz Type=RS41-SG ser=U1060169 Radiosonde
G4VFL-14U10601692022-12-07 00:42:0254.0168-6.257221684321052Clb=3.5m/s t=-62.6C h=5.7% 403.90MHz Type=RS41-SG Details on http://radiosondy.info
GURGE2-15U10601692022-12-07 00:41:5654.0186-6.258521624120965Clb=4.2m/s t=-62.3C h=1.6% p=-1.0hPa 403.901 MHz Type=RS41-SG ser=U1060169 Radiosonde
G4VFL-14U10601692022-12-07 00:41:5554.0209-6.260981514120838Clb=4.8m/s t=-62.3C h=5.6% 403.90MHz Type=RS41-SG Details on http://radiosondy.info
GURGE2-15U10601692022-12-07 00:41:5454.0212-6.261341404120820Clb=5.0m/s t=-62.2C h=1.6% p=-1.0hPa 403.901 MHz Type=RS41-SG ser=U1060169 Radiosonde
GURGE2-15U10601692022-12-07 00:41:4754.0234-6.265111274120685Clb=5.2m/s t=-62.1C h=1.6% p=-1.0hPa 403.901 MHz Type=RS41-SG ser=U1060169 Radiosonde
GURGE2-15U10601692022-12-07 00:41:3854.0256-6.269621274120552Clb=4.3m/s t=-61.6C h=1.6% p=-1.0hPa 403.901 MHz Type=RS41-SG ser=U1060169 Radiosonde
G4VFL-14U10601692022-12-07 00:41:3454.0263-6.271891244420490Clb=4.3m/s t=-61.2C h=5.4% 403.90MHz Type=RS41-SG Details on http://radiosondy.info
GURGE2-15U10601692022-12-07 00:41:3354.0273-6.274431304620423Clb=3.8m/s t=-61.0C h=1.5% p=-1.0hPa 403.901 MHz Type=RS41-SG ser=U1060169 Radiosonde
G4VFL-14U10601692022-12-07 00:41:3254.0286-6.27721255020357Clb=4.2m/s t=-61.2C h=5.2% 403.90MHz Type=RS41-SG Details on http://radiosondy.info
GURGE2-15U10601692022-12-07 00:41:3154.0295-6.279651254620300Clb=4.1m/s t=-61.6C h=1.5% p=-1.0hPa 403.901 MHz Type=RS41-SG ser=U1060169 Radiosonde
G4VFL-14U10601692022-12-07 00:41:3054.0311-6.282421454120220Clb=3.1m/s t=-62.5C h=5.8% 403.90MHz Type=RS41-SG batt=2.5V Details on http://radiosondy.info
G4VFL-14U10601692022-12-07 00:41:2954.0322-6.283971463920158Clb=3.4m/s t=-62.5C h=5.6% 403.90MHz Type=RS41-SG Details on http://radiosondy.info
G4VFL-14U10601692022-12-07 00:41:2854.0333-6.285921263720089Clb=5.0m/s t=-62.5C h=5.7% 403.90MHz Type=RS41-SG Details on http://radiosondy.info
GURGE2-15U10601692022-12-07 00:41:2654.0357-6.290581363019903Clb=4.6m/s t=-62.0C h=1.6% p=-1.0hPa 403.901 MHz Type=RS41-SG ser=U1060169 Radiosonde
G4VFL-14U10601692022-12-07 00:41:2454.0372-6.293181402219765Clb=3.9m/s t=-62.1C h=5.6% 403.90MHz Type=RS41-SG batt=2.5V Details on http://radiosondy.info
G4VFL-14U10601692022-12-07 00:41:2354.0389-6.295071473119616Clb=4.3m/s t=-61.7C h=5.6% 403.90MHz Type=RS41-SG Details on http://radiosondy.info
G4VFL-14U10601692022-12-07 00:41:2254.0399-6.296181393119546Clb=4.3m/s t=-61.4C h=5.4% 403.90MHz Type=RS41-SG TxPastBurst=8h30m batt=2.5V Details on http://radiosondy.info
G4VFL-14U10601692022-12-07 00:41:0854.0409-6.297421413319471Clb=4.8m/s t=-61.5C h=5.6% 403.90MHz Type=RS41-SG Details on http://radiosondy.info
G4VFL-14U10601692022-12-07 00:40:4454.0419-6.298811433319397Clb=5.0m/s t=-61.0C h=5.4% 403.90MHz Type=RS41-SG Details on http://radiosondy.info
G4VFL-14U10601692022-12-07 00:40:2154.0429-6.300161433319332Clb=3.8m/s t=-60.8C h=5.3% 403.90MHz Type=RS41-SG batt=2.6V Details on http://radiosondy.info
GURGE2-15U10601692022-12-07 00:40:2054.0429-6.300241453119327Clb=4.8m/s t=-60.9C h=1.5% p=-1.0hPa 403.901 MHz Type=RS41-SG ser=U1060169 Radiosonde
G4VFL-14U10601692022-12-07 00:39:5554.0439-6.301651383519265Clb=4.6m/s t=-60.9C h=5.3% 403.90MHz Type=RS41-SG Details on http://radiosondy.info
GURGE2-15U10601692022-12-07 00:39:3254.0447-6.303491373719200Clb=3.4m/s t=-61.4C h=1.6% p=-1.0hPa 403.901 MHz Type=RS41-SG ser=U1060169 Radiosonde
GURGE2-15U10601692022-12-07 00:38:4554.0463-6.306491333119076Clb=4.9m/s t=-60.7C h=1.5% p=-1.0hPa 403.901 MHz Type=RS41-SG ser=U1060169 Radiosonde
G4VFL-14U10601692022-12-07 00:38:1154.0475-6.308441333018990Clb=3.8m/s t=-60.1C h=5.1% 403.90MHz Type=RS41-SG Details on http://radiosondy.info
GURGE2-15U10601692022-12-07 00:37:5654.0479-6.309371303118954Clb=3.4m/s t=-60.1C h=1.5% p=-1.0hPa 403.901 MHz Type=RS41-SG ser=U1060169 Radiosonde
G4VFL-14U10601692022-12-07 00:37:4054.0483-6.31041083018916Clb=3.6m/s t=-59.8C h=5.1% 403.90MHz Type=RS41-SG batt=2.6V Details on http://radiosondy.info
G4VFL-14U10601692022-12-07 00:37:1454.0488-6.312051173018857Clb=4.4m/s t=-59.9C h=4.9% 403.90MHz Type=RS41-SG Details on http://radiosondy.info
GURGE2-15U10601692022-12-07 00:37:0354.049-6.312721163118832Clb=4.5m/s t=-60.1C h=1.5% p=-1.0hPa 403.901 MHz Type=RS41-SG ser=U1060169 Radiosonde
G4VFL-14U10601692022-12-07 00:36:4854.0492-6.313741022618795Clb=4.5m/s t=-60.0C h=5.2% 403.90MHz Type=RS41-SG Details on http://radiosondy.info
G4VFL-14U10601692022-12-07 00:36:2354.0495-6.31544843018726Clb=5.1m/s t=-59.7C h=5.0% 403.90MHz Type=RS41-SG TxPastBurst=8h30m batt=2.6V Details on http://radiosondy.info
GURGE2-15U10601692022-12-07 00:36:1154.0495-6.31612902618699Clb=5.0m/s t=-59.5C h=1.4% p=-1.0hPa 403.901 MHz Type=RS41-SG ser=U1060169 Radiosonde
G4VFL-14U10601692022-12-07 00:35:5754.0494-6.317231032818661Clb=5.0m/s t=-59.4C h=5.0% 403.90MHz Type=RS41-SG Details on http://radiosondy.info
G4VFL-14U10601692022-12-07 00:35:3454.0495-6.3191053018598Clb=4.2m/s t=-59.1C h=4.8% 403.90MHz Type=RS41-SG Details on http://radiosondy.info
GURGE2-15U10601692022-12-07 00:35:2154.0496-6.31984893118568Clb=4.3m/s t=-59.3C h=1.4% p=-1.0hPa 403.901 MHz Type=RS41-SG ser=U1060169 Radiosonde
G4VFL-14U10601692022-12-07 00:35:0954.0497-6.320821103318535Clb=4.8m/s t=-59.0C h=4.9% 403.90MHz Type=RS41-SG batt=2.6V Details on http://radiosondy.info
GURGE2-15U10601692022-12-07 00:34:3454.05-6.32382992818428Clb=5.6m/s t=-58.3C h=1.3% p=-1.0hPa 403.901 MHz Type=RS41-SG ser=U1060169 Radiosonde
GURGE2-15U10601692022-12-07 00:33:4254.0509-6.326511091518286Clb=5.0m/s t=-57.8C h=1.3% p=-1.0hPa 403.901 MHz Type=RS41-SG ser=U1060169 Radiosonde
G4VFL-14U10601692022-12-07 00:33:1154.052-6.327931533318198Clb=5.5m/s t=-57.4C h=4.5% 403.90MHz Type=RS41-SG Details on http://radiosondy.info
G4VFL-14U10601692022-12-07 00:32:4454.0532-6.328841623918131Clb=4.9m/s t=-57.1C h=4.4% 403.90MHz Type=RS41-SG Details on http://radiosondy.info
G4VFL-14U10601692022-12-07 00:32:1754.0545-6.329551654418068Clb=4.2m/s t=-57.4C h=4.4% 403.90MHz Type=RS41-SG batt=2.5V Details on http://radiosondy.info
GURGE2-15U10601692022-12-07 00:31:5154.0561-6.330461553518005Clb=4.9m/s t=-57.4C h=1.3% p=-1.0hPa 403.901 MHz Type=RS41-SG ser=U1060169 Radiosonde
G4VFL-14U10601692022-12-07 00:31:4854.0561-6.330461563918005Clb=4.8m/s t=-57.4C h=4.4% 403.90MHz Type=RS41-SG Details on http://radiosondy.info
G4VFL-14U10601692022-12-07 00:31:2454.0575-6.331361654617941Clb=4.6m/s t=-57.6C h=4.5% 403.90MHz Type=RS41-SG Details on http://radiosondy.info
GURGE2-15U10601692022-12-07 00:31:0054.059-6.332191574417884Clb=4.8m/s t=-58.0C h=1.4% p=-1.0hPa 403.901 MHz Type=RS41-SG ser=U1060169 Radiosonde
G4VFL-14U10601692022-12-07 00:30:5554.0593-6.332441574317872Clb=4.2m/s t=-57.9C h=4.6% 403.90MHz Type=RS41-SG TxPastBurst=8h30m batt=2.5V Details on http://radiosondy.info
G4VFL-14U10601692022-12-07 00:30:3154.0609-6.333551633517805Clb=4.1m/s t=-57.4C h=4.5% 403.90MHz Type=RS41-SG Details on http://radiosondy.info
G4VFL-14U10601692022-12-07 00:30:0354.062-6.334441582817744Clb=3.8m/s t=-57.3C h=4.5% 403.90MHz Type=RS41-SG Details on http://radiosondy.info
GURGE2-15U10601692022-12-07 00:29:1654.0637-6.335711572417624Clb=4.0m/s t=-57.5C h=1.4% p=-1.0hPa 403.901 MHz Type=RS41-SG ser=U1060169 Radiosonde
GURGE2-15U10601692022-12-07 00:28:2554.0659-6.336851632617490Clb=4.2m/s t=-57.2C h=1.4% p=-1.0hPa 403.901 MHz Type=RS41-SG ser=U1060169 Radiosonde
G4VFL-14U10601692022-12-07 00:27:5454.0672-6.337481673017403Clb=4.5m/s t=-57.4C h=4.4% 403.90MHz Type=RS41-SG batt=2.5V Details on http://radiosondy.info
GURGE2-15U10601692022-12-07 00:27:4554.0679-6.338011503017362Clb=3.9m/s t=-58.0C h=1.4% p=-1.0hPa 403.901 MHz Type=RS41-SG ser=U1060169 Radiosonde
GURGE2-15U10601692022-12-07 00:27:4354.0842-6.348571292016323Clb=4.8m/s t=-58.4C h=1.7% p=-1.0hPa 403.901 MHz Type=RS41-SG ser=U1060169 Radiosonde
G4VFL-14U10601692022-12-07 00:27:4254.0847-6.349811271716250Clb=4.7m/s t=-58.4C h=4.8% 403.90MHz Type=RS41-SG Details on http://radiosondy.info
GURGE2-15U10601692022-12-07 00:27:4154.0849-6.350364416213Clb=3.5m/s t=-58.4C h=1.7% p=-1.0hPa 403.901 MHz Type=RS41-SG ser=U1060169 Radiosonde
GURGE2-15U10601692022-12-07 00:27:0654.0856-6.350711661116082Clb=4.4m/s t=-57.9C h=1.7% p=-1.0hPa 403.901 MHz Type=RS41-SG ser=U1060169 Radiosonde
GURGE2-15U10601692022-12-07 00:27:0054.0867-6.351071711915951Clb=4.6m/s t=-57.3C h=1.6% p=-1.0hPa 403.901 MHz Type=RS41-SG ser=U1060169 Radiosonde
G4VFL-14U10601692022-12-07 00:26:5954.0875-6.351441621915871Clb=3.5m/s t=-57.0C h=4.6% 403.90MHz Type=RS41-SG Details on http://radiosondy.info
GURGE2-15U10601692022-12-07 00:26:5854.088-6.351781462015813Clb=4.1m/s t=-56.9C h=1.6% p=-1.0hPa 403.901 MHz Type=RS41-SG ser=U1060169 Radiosonde
GURGE2-15U10601692022-12-07 00:26:5554.0896-6.352961452815696Clb=3.6m/s t=-56.7C h=1.6% p=-1.0hPa 403.901 MHz Type=RS41-SG ser=U1060169 Radiosonde
G4VFL-14U10601692022-12-07 00:26:3854.0904-6.353511653015644Clb=3.6m/s t=-56.6C h=4.5% 403.90MHz Type=RS41-SG batt=2.5V Details on http://radiosondy.info
G4VFL-14U10601692022-12-07 00:26:1054.0916-6.353931733115582Clb=3.4m/s t=-56.8C h=4.6% 403.90MHz Type=RS41-SG Details on http://radiosondy.info
GURGE2-15U10601692022-12-07 00:26:0654.0917-6.353971672815574Clb=3.7m/s t=-57.0C h=1.7% p=-1.0hPa 403.901 MHz Type=RS41-SG ser=U1060169 Radiosonde
G4VFL-14U10601692022-12-07 00:25:4554.0927-6.354331523315526Clb=4.1m/s t=-57.1C h=4.7% 403.90MHz Type=RS41-SG Details on http://radiosondy.info
GURGE2-15U10601692022-12-07 00:25:1554.094-6.35561533715456Clb=4.2m/s t=-57.6C h=-1.0% p=-1.0hPa 403.901 MHz Type=RS41-SG ser=U1060169 Radiosonde
GURGE2-15U10601692022-12-07 00:24:2354.0968-6.358831373315334Clb=3.8m/s t=-58.2C h=-1.0% p=-1.0hPa 403.901 MHz Type=RS41-SG ser=U1060169 Radiosonde
GURGE2-15U10601692022-12-07 00:23:2954.0985-6.361791423315223Clb=2.8m/s t=-59.0C h=-1.0% p=-1.0hPa 403.901 MHz Type=RS41-SG ser=U1060169 Radiosonde
G4VFL-14U10601692022-12-07 00:23:1954.0989-6.362191462215204Clb=4.1m/s t=-58.9C h=5.3% 403.90MHz Type=RS41-SG batt=2.7V Details on http://radiosondy.info
G4VFL-14U10601692022-12-07 00:22:5054.0996-6.3631582015141Clb=3.8m/s t=-58.6C h=5.2% 403.90MHz Type=RS41-SG Details on http://radiosondy.info
GURGE2-15U10601692022-12-07 00:22:3254.1001-6.363381641915101Clb=4.8m/s t=-273.0C h=-1.0% p=-1.0hPa 403.901 MHz Type=RS41-SG ser=U1060169 Radiosonde
G4VFL-14U10601692022-12-07 00:22:2154.1004-6.363551472215078Clb=3.5m/s t=-58.8C h=5.3% 403.90MHz Type=RS41-SG Details on http://radiosondy.info
G4VFL-14U10601692022-12-07 00:21:5654.101-6.364391552215019Clb=4.2m/s t=-58.7C h=5.2% 403.90MHz Type=RS41-SG TxPastBurst=8h30m batt=2.7V Details on http://radiosondy.info
G4VFL-14U10601692022-12-07 00:21:2854.1017-6.365331412014957Clb=4.4m/s t=-58.4C h=5.2% 403.90MHz Type=RS41-SG Details on http://radiosondy.info
G4VFL-14U10601692022-12-07 00:21:0354.1024-6.366141412014893Clb=4.0m/s t=-58.1C h=5.1% 403.90MHz Type=RS41-SG Details on http://radiosondy.info
G4VFL-14U10601692022-12-07 00:20:3754.103-6.366761682014830Clb=4.3m/s t=-57.9C h=5.2% 403.90MHz Type=RS41-SG batt=2.7V Details on http://radiosondy.info
G4VFL-14U10601692022-12-07 00:18:0754.1065-6.366921912014487Clb=3.0m/s t=-56.6C h=4.8% 403.90MHz Type=RS41-SG Details on http://radiosondy.info
G4VFL-14U10601692022-12-07 00:17:4154.1072-6.366641862214428Clb=3.5m/s t=-56.3C h=4.7% 403.90MHz Type=RS41-SG Details on http://radiosondy.info
G4VFL-14U10601692022-12-07 00:17:1254.1081-6.366471892614366Clb=4.1m/s t=-56.3C h=4.7% 403.90MHz Type=RS41-SG batt=2.7V Details on http://radiosondy.info
G4VFL-14U10601692022-12-07 00:16:4554.1091-6.366191913014302Clb=3.4m/s t=-56.0C h=4.6% 403.90MHz Type=RS41-SG Details on http://radiosondy.info
G4VFL-14U10601692022-12-07 00:16:1554.1103-6.365911893914243Clb=4.3m/s t=-56.1C h=4.6% 403.90MHz Type=RS41-SG Details on http://radiosondy.info
G4VFL-14U10601692022-12-07 00:15:4854.1119-6.36541904414177Clb=3.4m/s t=-56.2C h=4.8% 403.90MHz Type=RS41-SG TxPastBurst=8h30m batt=2.7V Details on http://radiosondy.info
G4VFL-14U10601692022-12-07 00:15:2254.1135-6.365061834614119Clb=3.4m/s t=-56.4C h=4.9% 403.90MHz Type=RS41-SG Details on http://radiosondy.info
G4VFL-14U10601692022-12-07 00:13:0454.1229-6.36621634613812Clb=3.3m/s t=-57.1C h=5.3% 403.90MHz Type=RS41-SG Details on http://radiosondy.info
G4VFL-14U10601692022-12-07 00:12:3154.1268-6.368251724113680Clb=4.0m/s t=-58.7C h=6.0% 403.90MHz Type=RS41-SG Details on http://radiosondy.info
G4VFL-14U10601692022-12-07 00:12:0454.1283-6.368551764413623Clb=4.1m/s t=-58.8C h=6.1% 403.90MHz Type=RS41-SG Details on http://radiosondy.info
G4VFL-14U10601692022-12-07 00:11:4854.13-6.368531814613568Clb=3.9m/s t=-58.8C h=6.1% 403.90MHz Type=RS41-SG batt=2.7V Details on http://radiosondy.info
G4VFL-14U10601692022-12-07 00:11:3654.1319-6.368441844113505Clb=3.7m/s t=-58.9C h=6.1% 403.90MHz Type=RS41-SG Details on http://radiosondy.info
G4VFL-14U10601692022-12-07 00:11:1754.1335-6.36821854113446Clb=3.4m/s t=-59.0C h=6.2% 403.90MHz Type=RS41-SG Details on http://radiosondy.info
G4VFL-14U10601692022-12-07 00:10:2654.1409-6.370071614113141Clb=3.0m/s t=-59.5C h=6.9% 403.90MHz Type=RS41-SG TxPastBurst=8h30m batt=2.6V Details on http://radiosondy.info
G4VFL-14U10601692022-12-07 00:10:0954.1426-6.370891613913073Clb=3.2m/s t=-59.3C h=6.8% 403.90MHz Type=RS41-SG Details on http://radiosondy.info
G4VFL-14U10601692022-12-07 00:10:0154.1441-6.372051563113005Clb=4.6m/s t=-58.8C h=6.8% 403.90MHz Type=RS41-SG Details on http://radiosondy.info
G4VFL-14U10601692022-12-07 00:09:5854.1453-6.373021643112944Clb=4.4m/s t=-58.3C h=6.7% 403.90MHz Type=RS41-SG batt=2.7V Details on http://radiosondy.info
G4VFL-14U10601692022-12-07 00:09:5454.1464-6.373791612812883Clb=3.4m/s t=-58.7C h=7.2% 403.90MHz Type=RS41-SG Details on http://radiosondy.info
G4VFL-14U10601692022-12-07 00:09:4954.1474-6.374181693312824Clb=4.2m/s t=-59.1C h=7.4% 403.90MHz Type=RS41-SG Details on http://radiosondy.info
G4VFL-14U10601692022-12-07 00:09:4854.1486-6.374821573112761Clb=4.3m/s t=-59.3C h=7.9% 403.90MHz Type=RS41-SG batt=2.6V Details on http://radiosondy.info
G4VFL-14U10601692022-12-07 00:09:4354.154-6.376012073512426Clb=3.6m/s t=-59.6C h=9.7% 403.90MHz Type=RS41-SG Details on http://radiosondy.info
G4VFL-14U10601692022-12-07 00:09:4254.1552-6.374922053512366Clb=3.3m/s t=-59.3C h=9.9% 403.90MHz Type=RS41-SG Details on http://radiosondy.info
G4VFL-14U10601692022-12-07 00:09:4154.1565-6.373912054412306Clb=3.4m/s t=-59.1C h=10.1% 403.90MHz Type=RS41-SG TxPastBurst=8h30m batt=2.7V Details on http://radiosondy.info
G4VFL-14U10601692022-12-07 00:09:4054.1582-6.372751994412245Clb=3.1m/s t=-58.7C h=10.5% 403.90MHz Type=RS41-SG Details on http://radiosondy.info
G4VFL-14U10601692022-12-07 00:09:3254.1598-6.371662014612186Clb=3.2m/s t=-58.4C h=10.8% 403.90MHz Type=RS41-SG Details on http://radiosondy.info
G4VFL-14U10601692022-12-07 00:09:0954.1616-6.370571985412126Clb=4.0m/s t=-59.1C h=11.8% 403.90MHz Type=RS41-SG batt=2.6V Details on http://radiosondy.info
G4VFL-14U10601692022-12-07 00:08:4354.1637-6.36941975912068Clb=3.7m/s t=-60.4C h=14.1% 403.90MHz Type=RS41-SG Details on http://radiosondy.info
G4VFL-14U10601692022-12-07 00:06:4354.1742-6.367841746511791Clb=2.5m/s t=-60.1C h=16.1% 403.90MHz Type=RS41-SG Details on http://radiosondy.info
G4VFL-14U10601692022-12-07 00:06:1654.1766-6.368621656311734Clb=4.2m/s t=-60.2C h=16.8% 403.90MHz Type=RS41-SG batt=2.7V Details on http://radiosondy.info
G4VFL-14U10601692022-12-07 00:05:4754.179-6.369791685711675Clb=3.1m/s t=-60.0C h=17.0% calibration 98% 403.90MHz Type=RS41-SG Details on http://radiosondy.info
G4VFL-14U10601692022-12-07 00:05:2354.181-6.370941595611616Clb=3.8m/s t=-59.6C h=16.7% calibration 96% 403.90MHz Type=RS41-SG Details on http://radiosondy.info
G4VFL-14U10601692022-12-07 00:04:5754.1829-6.372231595011561Clb=4.3m/s t=-59.2C h=16.6% calibration 96% 403.90MHz Type=RS41-SG TxPastBurst=8h30m batt=2.6V Details on http://radiosondy.info
G4VFL-14U10601692022-12-07 00:04:3354.1847-6.37361604811498Clb=4.3m/s t=-59.0C h=17.0% calibration 94% 403.90MHz Type=RS41 Details on http://radiosondy.info
G4VFL-14U10601692022-12-07 00:04:0654.1864-6.375441435011436Clb=4.0m/s t=-59.1C h=17.5% calibration 94% 403.90MHz Type=RS41 Details on http://radiosondy.info
G4VFL-14U10601692022-12-06 23:59:3154.2164-6.367551956310413Clb=2.9m/s t=-56.9C h=24.6% calibration 94% 403.90MHz Type=RS41 batt=2.7V Details on http://radiosondy.info
G4VFL-14U10601692022-12-06 23:59:0054.2252-6.367031815910192Clb=4.3m/s t=-57.1C h=21.2% calibration 92% 403.90MHz Type=RS41 Details on http://radiosondy.info
G4VFL-14U10601692022-12-06 23:58:5954.2274-6.366791896310129Clb=3.8m/s t=-57.0C h=24.3% calibration 92% 403.90MHz Type=RS41 Details on http://radiosondy.info
G4VFL-14U10601692022-12-06 23:58:5854.2298-6.366351886110073Clb=4.0m/s t=-56.7C h=28.2% calibration 90% 403.90MHz Type=RS41 batt=2.6V Details on http://radiosondy.info
G4VFL-14U10601692022-12-06 23:58:5354.2322-6.365881885910011Clb=4.4m/s t=-56.7C h=35.1% calibration 90% 403.90MHz Type=RS41 Details on http://radiosondy.info
G4VFL-14U10601692022-12-06 23:56:5854.2414-6.36479187529747Clb=4.4m/s t=-56.5C h=65.4% calibration 90% 403.90MHz Type=RS41 Details on http://radiosondy.info
G4VFL-14U10601692022-12-06 23:56:3154.2433-6.36435187569692Clb=2.7m/s t=-56.3C h=71.8% calibration 88% 403.90MHz Type=RS41 TxPastBurst=8h30m batt=2.6V Details on http://radiosondy.info
G4VFL-14U10601692022-12-06 23:56:0554.2455-6.36375191579633Clb=3.6m/s t=-55.9C h=74.4% calibration 88% 403.90MHz Type=RS41 Details on http://radiosondy.info
G4VFL-14U10601692022-12-06 23:55:4154.2476-6.36317192579579Clb=4.4m/s t=-55.6C h=73.9% calibration 88% 403.90MHz Type=RS41 Details on http://radiosondy.info
G4VFL-14U10601692022-12-06 23:55:1554.2499-6.36246194579523Clb=3.6m/s t=-55.1C h=74.4% calibration 88% 403.90MHz Type=RS41 batt=2.7V Details on http://radiosondy.info
G4VFL-14U10601692022-12-06 23:54:5054.2521-6.36174192599468Clb=3.3m/s t=-54.7C h=74.9% calibration 88% 403.90MHz Type=RS41 Details on http://radiosondy.info
G4VFL-14U10601692022-12-06 23:54:2754.2543-6.36099190599416Clb=3.5m/s t=-54.4C h=74.6% calibration 88% 403.90MHz Type=RS41 Details on http://radiosondy.info
G4VFL-14U10601692022-12-06 23:54:0154.2566-6.36009195639358Clb=4.4m/s t=-54.1C h=74.3% calibration 88% 403.90MHz Type=RS41 batt=2.7V Details on http://radiosondy.info
G4VFL-14U10601692022-12-06 23:52:0354.2681-6.35637190699097Clb=3.8m/s calibration 86% 403.90MHz Type=RS41 Details on http://radiosondy.info
G4VFL-14U10601692022-12-06 23:51:4654.2708-6.35578186709038Clb=2.8m/s calibration 78% 403.90MHz Type=RS41 Details on http://radiosondy.info
G4VFL-14U10601692022-12-06 23:51:3154.2734-6.35512191698982Clb=4.0m/s calibration 76% 403.90MHz Type=RS41 batt=2.7V Details on http://radiosondy.info
G4VFL-14U10601692022-12-06 23:51:2754.276-6.35447188698925Clb=3.3m/s calibration 74% 403.90MHz Type=RS41 Details on http://radiosondy.info
G4VFL-14U10601692022-12-06 23:51:2254.2787-6.35381190678864Clb=3.6m/s calibration 74% 403.90MHz Type=RS41 Details on http://radiosondy.info
G4VFL-14U10601692022-12-06 23:51:0854.2811-6.35312192678809Clb=3.7m/s calibration 66% 403.90MHz Type=RS41 batt=2.7V Details on http://radiosondy.info
G4VFL-14U10601692022-12-06 23:51:0054.2836-6.35248190678752Clb=3.2m/s calibration 60% 403.90MHz Type=RS41 Details on http://radiosondy.info
G4VFL-14U10601692022-12-06 23:50:5654.286-6.35184191698694Clb=4.7m/s calibration 52% 403.90MHz Type=RS41 Details on http://radiosondy.info
G4VFL-14U10601692022-12-06 23:50:5254.3018-6.34853185678334Clb=3.4m/s calibration 41% 403.90MHz Type=RS41 Details on http://radiosondy.info
G4VFL-14U10601692022-12-06 23:50:4454.3043-6.34821183658277Clb=4.0m/s calibration 31% Type=RS41 Details on http://radiosondy.info
G4VFL-14U10601692022-12-06 23:50:2954.3068-6.34779187638215Clb=3.8m/s calibration 19% Type=RS41 batt=2.7V Details on http://radiosondy.info